createdAt,value
2023-04-20T00:02:42.352Z,10.80
2023-04-20T00:07:48.582Z,10.90
2023-04-20T00:12:54.221Z,10.80
2023-04-20T00:17:59.701Z,10.80
2023-04-20T00:23:05.628Z,11.20
2023-04-20T00:28:11.101Z,10.50
2023-04-20T00:33:16.713Z,10.50
2023-04-20T00:38:22.524Z,10.70
2023-04-20T00:43:28.214Z,11.70
2023-04-20T00:48:34.314Z,10.90
2023-04-20T00:53:40.820Z,10.10
2023-04-20T00:58:47.023Z,10.60
2023-04-20T01:03:52.735Z,10.10
2023-04-20T01:08:58.354Z,10.30
2023-04-20T01:14:03.834Z,9.80
2023-04-20T01:19:10.091Z,9.10
2023-04-20T01:24:15.689Z,10.10
2023-04-20T01:29:21.150Z,10.90
2023-04-20T01:34:26.936Z,10.60
2023-04-20T01:39:33.028Z,10.30
2023-04-20T01:44:39.055Z,9.30
2023-04-20T01:49:45.160Z,10.20
2023-04-20T01:54:50.736Z,10.70
2023-04-20T01:59:56.300Z,10.60
2023-04-20T02:05:01.824Z,10.80
2023-04-20T02:10:08.614Z,11.30
2023-04-20T02:15:14.222Z,11.00
2023-04-20T02:20:20.388Z,10.70
2023-04-20T02:25:25.896Z,11.50
2023-04-20T02:30:31.639Z,11.00
2023-04-20T02:35:37.050Z,9.90
2023-04-20T02:40:42.982Z,10.10
2023-04-20T02:45:48.879Z,12.40
2023-04-20T02:50:57.752Z,11.90
2023-04-20T02:56:06.050Z,10.60
2023-04-20T03:01:21.051Z,9.30
2023-04-20T03:06:28.426Z,9.60
2023-04-20T03:11:35.531Z,12.60
2023-04-20T03:16:42.274Z,14.50
2023-04-20T03:21:49.144Z,12.10
2023-04-20T03:26:55.185Z,11.40
2023-04-20T03:32:12.446Z,11.20
2023-04-20T03:37:18.159Z,11.50
2023-04-20T03:42:26.003Z,12.00
2023-04-20T03:47:34.172Z,11.10
2023-04-20T03:52:39.634Z,10.50
2023-04-20T03:57:45.306Z,11.80
2023-04-20T04:02:51.075Z,11.90
2023-04-20T04:08:03.355Z,11.50
2023-04-20T04:13:09.763Z,11.50
2023-04-20T04:18:15.606Z,11.20
2023-04-20T04:23:21.725Z,12.40
2023-04-20T04:28:33.002Z,13.10
2023-04-20T04:33:50.361Z,11.40
2023-04-20T04:39:06.678Z,11.50
2023-04-20T04:44:12.195Z,10.30
2023-04-20T04:49:18.835Z,11.30
2023-04-20T04:54:24.742Z,11.00
2023-04-20T04:59:31.028Z,10.10
2023-04-20T05:04:36.628Z,11.00
2023-04-20T05:09:42.737Z,11.30
2023-04-20T05:14:48.512Z,12.50
2023-04-20T05:19:54.447Z,9.40
2023-04-20T05:25:00.223Z,10.00
2023-04-20T05:35:19.177Z,9.00
2023-04-20T05:40:25.056Z,9.20
2023-04-20T05:45:32.917Z,10.90
2023-04-20T05:50:38.710Z,14.00
2023-04-20T05:55:44.217Z,13.90
2023-04-20T06:00:49.747Z,11.60
2023-04-20T06:05:55.353Z,9.00
2023-04-20T06:11:01.380Z,9.90
2023-04-20T06:16:09.830Z,8.30
2023-04-20T06:21:17.333Z,8.90
2023-04-20T06:26:23.325Z,8.60
2023-04-20T06:31:29.569Z,7.90
2023-04-20T06:36:35.039Z,6.30
2023-04-20T06:41:40.701Z,6.30
2023-04-20T06:46:46.371Z,5.00
2023-04-20T06:51:51.910Z,5.10
2023-04-20T06:56:57.829Z,5.50
2023-04-20T07:02:03.329Z,5.10
2023-04-20T07:07:08.897Z,4.50
2023-04-20T07:12:15.897Z,3.30
2023-04-20T07:17:21.413Z,3.70
2023-04-20T07:22:26.987Z,3.30
2023-04-20T07:27:36.671Z,3.80
2023-04-20T07:32:42.389Z,3.90
2023-04-20T07:37:48.046Z,4.20
2023-04-20T07:42:53.473Z,3.90
2023-04-20T07:48:01.572Z,3.40
2023-04-20T07:53:07.326Z,3.60
2023-04-20T07:58:14.112Z,3.90
2023-04-20T08:03:19.812Z,3.00
2023-04-20T08:08:25.858Z,3.10
2023-04-20T08:13:32.261Z,3.70
2023-04-20T08:18:37.753Z,3.30
2023-04-20T08:23:43.416Z,3.40
2023-04-20T08:28:48.854Z,3.70
2023-04-20T08:33:54.479Z,3.40
2023-04-20T08:39:08.060Z,3.20
2023-04-20T08:44:13.633Z,5.90
2023-04-20T08:49:20.016Z,3.50
2023-04-20T08:54:25.997Z,3.80
2023-04-20T08:59:33.041Z,3.10
2023-04-20T09:04:39.248Z,3.10
2023-04-20T09:09:55.728Z,2.90
2023-04-20T09:15:01.652Z,2.90
2023-04-20T09:20:09.288Z,3.30
2023-04-20T09:25:16.346Z,2.70
2023-04-20T09:30:22.088Z,2.90
2023-04-20T09:35:27.966Z,2.90
2023-04-20T09:40:33.906Z,2.50
2023-04-20T09:45:40.685Z,2.80
2023-04-20T09:50:51.134Z,2.00
2023-04-20T09:55:58.440Z,1.50
2023-04-20T10:01:03.994Z,3.00
2023-04-20T10:06:20.478Z,2.00
2023-04-20T10:11:40.549Z,1.70
2023-04-20T10:22:08.218Z,2.20
2023-04-20T10:27:21.350Z,2.00
2023-04-20T10:32:29.475Z,2.10
2023-04-20T10:37:35.977Z,2.20
2023-04-20T10:42:45.306Z,2.00
2023-04-20T10:47:50.879Z,1.70
2023-04-20T10:52:56.405Z,2.00
2023-04-20T10:58:01.752Z,2.10
2023-04-20T11:03:11.414Z,2.00
2023-04-20T11:08:17.037Z,2.20
2023-04-20T11:13:25.540Z,2.20
2023-04-20T11:18:32.449Z,2.10
2023-04-20T11:23:42.018Z,2.10
2023-04-20T11:28:56.326Z,2.20
2023-04-20T11:34:02.875Z,2.00
2023-04-20T11:39:12.986Z,2.30
2023-04-20T11:44:20.933Z,1.90
2023-04-20T11:49:28.082Z,2.40
2023-04-20T11:54:35.141Z,2.20
2023-04-20T11:59:42.912Z,2.30
2023-04-20T12:04:48.570Z,2.20
2023-04-20T12:09:54.308Z,2.50
2023-04-20T12:14:59.814Z,2.20
2023-04-20T12:20:12.247Z,2.40
2023-04-20T12:25:18.058Z,2.60
2023-04-20T12:30:23.696Z,2.60
2023-04-20T12:35:29.296Z,2.40
2023-04-20T12:40:34.929Z,2.50
2023-04-20T12:45:40.452Z,2.50
2023-04-20T12:50:45.797Z,2.10
2023-04-20T12:55:57.864Z,2.60
2023-04-20T13:01:09.458Z,2.90
2023-04-20T13:06:16.126Z,2.80
2023-04-20T13:11:22.116Z,2.70
2023-04-20T13:16:28.656Z,2.50
2023-04-20T13:21:34.189Z,3.00
2023-04-20T13:26:40.224Z,2.90
2023-04-20T13:31:47.725Z,2.40
2023-04-20T13:36:53.641Z,2.40
2023-04-20T13:41:59.361Z,2.90
2023-04-20T13:47:04.919Z,3.30
2023-04-20T13:52:10.817Z,3.00
2023-04-20T13:57:16.620Z,2.70
2023-04-20T14:02:22.139Z,3.00
2023-04-20T14:07:28.402Z,3.00
2023-04-20T14:12:34.237Z,3.20
2023-04-20T14:17:39.918Z,3.00
2023-04-20T14:22:45.436Z,3.20
2023-04-20T14:27:50.838Z,3.40
2023-04-20T14:32:58.039Z,3.20
2023-04-20T14:38:03.828Z,3.30
2023-04-20T14:43:09.351Z,3.40
2023-04-20T14:48:15.041Z,3.20
2023-04-20T14:53:22.344Z,3.30
2023-04-20T14:58:29.291Z,3.40
2023-04-20T15:03:35.046Z,3.60
2023-04-20T15:08:40.926Z,3.70
2023-04-20T15:13:47.129Z,3.50
2023-04-20T15:18:54.683Z,4.00
2023-04-20T15:24:00.258Z,4.00
2023-04-20T15:29:05.787Z,3.50
2023-04-20T15:34:15.076Z,3.80
2023-04-20T15:39:20.902Z,3.90
2023-04-20T15:44:27.546Z,4.00
2023-04-20T15:49:35.785Z,4.30
2023-04-20T15:54:41.281Z,4.50
2023-04-20T15:59:46.666Z,4.20
2023-04-20T16:04:52.352Z,5.00
2023-04-20T16:09:58.105Z,5.00
2023-04-20T16:15:04.390Z,5.60
2023-04-20T16:20:11.978Z,5.10
2023-04-20T16:25:23.027Z,5.20
2023-04-20T16:30:29.465Z,8.40
2023-04-20T16:35:34.878Z,9.80
2023-04-20T16:40:42.404Z,6.70
2023-04-20T16:45:47.961Z,5.40
2023-04-20T16:50:53.697Z,5.20
2023-04-20T16:55:59.277Z,5.20
2023-04-20T17:01:05.379Z,5.30
2023-04-20T17:06:11.223Z,5.60
2023-04-20T17:11:19.262Z,5.50
2023-04-20T17:16:24.699Z,5.40
2023-04-20T17:21:30.733Z,5.70
2023-04-20T17:26:36.077Z,6.00
2023-04-20T17:31:41.611Z,9.10
2023-04-20T17:36:47.038Z,8.80
2023-04-20T17:41:52.342Z,8.10
2023-04-20T17:46:59.334Z,6.70
2023-04-20T17:52:05.195Z,6.70
2023-04-20T17:57:10.788Z,6.40
2023-04-20T18:02:16.726Z,6.60
2023-04-20T18:07:22.597Z,6.10
2023-04-20T18:12:33.907Z,7.40
2023-04-20T18:17:40.478Z,8.00
2023-04-20T18:22:50.941Z,8.10
2023-04-20T18:27:56.659Z,8.50
2023-04-20T18:33:02.939Z,8.20
2023-04-20T18:38:08.804Z,8.00
2023-04-20T18:43:14.455Z,8.60
2023-04-20T18:48:20.201Z,10.20
2023-04-20T18:53:25.790Z,13.10
2023-04-20T18:58:32.551Z,15.30
2023-04-20T19:03:38.460Z,18.00
2023-04-20T19:08:43.909Z,17.70
2023-04-20T19:13:49.442Z,16.20
2023-04-20T19:18:56.700Z,14.10
2023-04-20T19:24:02.498Z,13.80
2023-04-20T19:29:07.838Z,14.70
2023-04-20T19:34:13.501Z,18.70
2023-04-20T19:39:19.724Z,17.50
2023-04-20T19:44:25.710Z,16.70
2023-04-20T19:49:31.576Z,16.60
2023-04-20T19:54:37.034Z,16.50
2023-04-20T19:59:42.788Z,16.50
2023-04-20T20:04:49.568Z,18.80
2023-04-20T20:09:55.411Z,18.60
2023-04-20T20:15:10.026Z,19.70
2023-04-20T20:20:15.639Z,20.70
2023-04-20T20:25:21.099Z,24.80
2023-04-20T20:30:26.558Z,29.40
2023-04-20T20:35:33.372Z,23.70
2023-04-20T20:40:42.427Z,22.00
2023-04-20T20:45:47.836Z,19.50
2023-04-20T20:50:53.355Z,18.30
2023-04-20T20:55:58.909Z,18.20
2023-04-20T21:01:04.743Z,17.80
2023-04-20T21:10:02.464Z,15.70
2023-04-20T21:15:10.343Z,15.60
2023-04-20T21:20:16.113Z,15.60
2023-04-20T21:25:21.815Z,13.50
2023-04-20T21:30:28.329Z,14.10
2023-04-20T21:35:33.740Z,15.10
2023-04-20T21:40:39.570Z,12.50
2023-04-20T21:45:45.449Z,12.60
2023-04-20T21:50:50.884Z,11.90
2023-04-20T21:55:56.418Z,11.70
2023-04-20T22:01:01.821Z,11.30
2023-04-20T22:06:07.975Z,11.80
2023-04-20T22:11:14.240Z,12.00
2023-04-20T22:16:21.209Z,11.80
2023-04-20T22:21:26.792Z,10.50
2023-04-20T22:26:32.293Z,11.40
2023-04-20T22:31:38.109Z,11.70
2023-04-20T22:36:43.743Z,10.90
2023-04-20T22:41:49.261Z,11.30
2023-04-20T22:46:55.024Z,10.80
2023-04-20T22:52:00.509Z,10.90
2023-04-20T22:57:06.432Z,11.20
2023-04-20T23:02:12.253Z,11.20
2023-04-20T23:07:19.544Z,10.70
2023-04-20T23:12:26.393Z,12.40
2023-04-20T23:17:32.438Z,12.10
2023-04-20T23:22:37.923Z,13.80
2023-04-20T23:27:43.348Z,12.10
2023-04-20T23:32:48.726Z,11.50
2023-04-20T23:37:55.637Z,10.70
2023-04-20T23:43:01.410Z,11.70
2023-04-20T23:48:07.637Z,11.10
2023-04-20T23:53:13.062Z,10.80
2023-04-20T23:58:19.633Z,10.90
